CheckWX is a tool to help pilots better visualize weather data.  It is not intended as a substitute for an official pre-flight weather briefing.

21:03:45 UTC

KLHB METAR
Hearne Municipal Airport
Hearne, Texas, USA
Current

9 mins ago

KLHB 232055Z AUTO 26009G16KT 10SM CLR 22/02 A2991 RMK AO2 T02150023
Observed
Feb-23 @ 20:55 UTC
Wind
  • 260° at 9 KTS
  • Gusting to 16 KTS
Visibility
10 SM
Flight Rules
VFR
Cloud Levels
  • Clear skies
Temperature
22°C / 72°F
Dewpoint
C / 36°F
Humidity
27%
Altimeter
29.91" Hg
Pressure
1012.92 hPa
Previous

29 mins ago

KLHB 232035Z AUTO 26010G18KT 220V280 10SM CLR 21/02 A2992 RMK AO2 T02130022
Observed
Feb-23 @ 20:35 UTC
Wind
  • 260° at 10 KTS
  • Gusting to 18 KTS
Visibility
10 SM
Flight Rules
VFR
Cloud Levels
  • Clear skies
Temperature
21°C / 70°F
Dewpoint
C / 36°F
Humidity
29%
Altimeter
29.92" Hg
Pressure
1013.22 hPa
Previous

49 mins ago

KLHB 232015Z AUTO 26011G18KT 10SM CLR 22/02 A2992 RMK AO2 T02150018
Observed
Feb-23 @ 20:15 UTC
Wind
  • 260° at 11 KTS
  • Gusting to 18 KTS
Visibility
10 SM
Flight Rules
VFR
Cloud Levels
  • Clear skies
Temperature
22°C / 72°F
Dewpoint
C / 36°F
Humidity
27%
Altimeter
29.92" Hg
Pressure
1013.22 hPa